sensor_id;sensor_type;location;lat;lon;timestamp;P1;durP1;ratioP1;P2;durP2;ratioP2
75071;SDS011;63651;55.728;38.022;2024-01-27T00:01:56;7.72;;;6.40;;
75071;SDS011;63651;55.728;38.022;2024-01-27T00:07:00;7.80;;;6.07;;
75071;SDS011;63651;55.728;38.022;2024-01-27T00:12:02;8.02;;;5.78;;
75071;SDS011;63651;55.728;38.022;2024-01-27T00:17:06;8.40;;;5.85;;
75071;SDS011;63651;55.728;38.022;2024-01-27T00:22:08;6.45;;;4.80;;
75071;SDS011;63651;55.728;38.022;2024-01-27T00:27:10;6.65;;;4.78;;
75071;SDS011;63651;55.728;38.022;2024-01-27T00:32:13;6.65;;;4.97;;
75071;SDS011;63651;55.728;38.022;2024-01-27T00:37:15;6.60;;;5.05;;
75071;SDS011;63651;55.728;38.022;2024-01-27T00:42:19;10.30;;;5.72;;
75071;SDS011;63651;55.728;38.022;2024-01-27T00:47:25;7.72;;;6.03;;
75071;SDS011;63651;55.728;38.022;2024-01-27T00:52:28;10.13;;;6.25;;
75071;SDS011;63651;55.728;38.022;2024-01-27T00:57:30;9.48;;;7.32;;
75071;SDS011;63651;55.728;38.022;2024-01-27T01:02:33;9.55;;;7.50;;
75071;SDS011;63651;55.728;38.022;2024-01-27T01:07:35;9.23;;;6.95;;
75071;SDS011;63651;55.728;38.022;2024-01-27T01:12:37;8.65;;;6.80;;
75071;SDS011;63651;55.728;38.022;2024-01-27T01:17:41;11.07;;;6.88;;
75071;SDS011;63651;55.728;38.022;2024-01-27T01:22:44;7.32;;;6.15;;
75071;SDS011;63651;55.728;38.022;2024-01-27T01:27:46;7.55;;;5.72;;
75071;SDS011;63651;55.728;38.022;2024-01-27T01:32:50;7.63;;;5.93;;
75071;SDS011;63651;55.728;38.022;2024-01-27T01:37:53;7.25;;;5.50;;
75071;SDS011;63651;55.728;38.022;2024-01-27T01:42:56;6.35;;;4.93;;
75071;SDS011;63651;55.728;38.022;2024-01-27T01:48:00;6.45;;;5.35;;
75071;SDS011;63651;55.728;38.022;2024-01-27T01:53:02;8.18;;;5.53;;
75071;SDS011;63651;55.728;38.022;2024-01-27T01:58:05;7.13;;;5.40;;
75071;SDS011;63651;55.728;38.022;2024-01-27T02:03:11;5.53;;;4.50;;
75071;SDS011;63651;55.728;38.022;2024-01-27T02:08:14;6.85;;;4.78;;
75071;SDS011;63651;55.728;38.022;2024-01-27T02:13:20;6.30;;;4.95;;
75071;SDS011;63651;55.728;38.022;2024-01-27T02:18:24;7.20;;;5.40;;
75071;SDS011;63651;55.728;38.022;2024-01-27T02:23:27;6.47;;;4.50;;
75071;SDS011;63651;55.728;38.022;2024-01-27T02:28:30;6.80;;;5.00;;
75071;SDS011;63651;55.728;38.022;2024-01-27T02:38:38;6.95;;;5.10;;
75071;SDS011;63651;55.728;38.022;2024-01-27T02:43:40;5.47;;;4.30;;
75071;SDS011;63651;55.728;38.022;2024-01-27T02:48:42;6.78;;;4.60;;
75071;SDS011;63651;55.728;38.022;2024-01-27T02:53:45;7.03;;;4.68;;
75071;SDS011;63651;55.728;38.022;2024-01-27T02:58:48;5.90;;;4.47;;
75071;SDS011;63651;55.728;38.022;2024-01-27T03:03:51;6.13;;;4.45;;
75071;SDS011;63651;55.728;38.022;2024-01-27T03:08:53;4.60;;;4.07;;
75071;SDS011;63651;55.728;38.022;2024-01-27T03:13:56;5.80;;;4.35;;
75071;SDS011;63651;55.728;38.022;2024-01-27T03:18:59;5.88;;;4.50;;
75071;SDS011;63651;55.728;38.022;2024-01-27T03:24:00;5.47;;;4.05;;
75071;SDS011;63651;55.728;38.022;2024-01-27T03:29:02;7.97;;;4.32;;
75071;SDS011;63651;55.728;38.022;2024-01-27T03:34:05;5.90;;;4.30;;
75071;SDS011;63651;55.728;38.022;2024-01-27T03:39:07;5.95;;;3.97;;
75071;SDS011;63651;55.728;38.022;2024-01-27T03:44:10;6.25;;;4.55;;
75071;SDS011;63651;55.728;38.022;2024-01-27T03:49:13;5.85;;;4.60;;
75071;SDS011;63651;55.728;38.022;2024-01-27T03:54:15;5.97;;;4.82;;
75071;SDS011;63651;55.728;38.022;2024-01-27T03:59:16;6.45;;;4.20;;
75071;SDS011;63651;55.728;38.022;2024-01-27T04:04:19;5.75;;;4.10;;
75071;SDS011;63651;55.728;38.022;2024-01-27T04:09:20;6.18;;;3.97;;
75071;SDS011;63651;55.728;38.022;2024-01-27T04:14:23;5.50;;;4.13;;
75071;SDS011;63651;55.728;38.022;2024-01-27T04:19:25;6.28;;;4.05;;
75071;SDS011;63651;55.728;38.022;2024-01-27T04:24:26;7.05;;;3.97;;
75071;SDS011;63651;55.728;38.022;2024-01-27T04:29:28;6.25;;;4.10;;
75071;SDS011;63651;55.728;38.022;2024-01-27T04:34:31;6.47;;;4.43;;
75071;SDS011;63651;55.728;38.022;2024-01-27T04:39:33;7.15;;;3.72;;
75071;SDS011;63651;55.728;38.022;2024-01-27T04:44:39;6.57;;;3.95;;
75071;SDS011;63651;55.728;38.022;2024-01-27T04:54:44;6.50;;;3.58;;
75071;SDS011;63651;55.728;38.022;2024-01-27T04:59:46;6.03;;;3.75;;
75071;SDS011;63651;55.728;38.022;2024-01-27T05:04:48;4.88;;;3.47;;
75071;SDS011;63651;55.728;38.022;2024-01-27T05:09:50;4.63;;;3.47;;
75071;SDS011;63651;55.728;38.022;2024-01-27T05:14:52;5.40;;;3.67;;
75071;SDS011;63651;55.728;38.022;2024-01-27T05:19:57;7.60;;;5.05;;
75071;SDS011;63651;55.728;38.022;2024-01-27T05:24:59;5.35;;;4.70;;
75071;SDS011;63651;55.728;38.022;2024-01-27T05:30:02;6.60;;;4.93;;
75071;SDS011;63651;55.728;38.022;2024-01-27T05:35:08;5.80;;;4.13;;
75071;SDS011;63651;55.728;38.022;2024-01-27T05:40:12;5.35;;;4.32;;
75071;SDS011;63651;55.728;38.022;2024-01-27T05:45:16;5.80;;;3.97;;
75071;SDS011;63651;55.728;38.022;2024-01-27T05:50:19;5.80;;;4.35;;
75071;SDS011;63651;55.728;38.022;2024-01-27T05:55:21;6.60;;;4.68;;
75071;SDS011;63651;55.728;38.022;2024-01-27T06:00:24;6.78;;;4.72;;
75071;SDS011;63651;55.728;38.022;2024-01-27T06:05:25;7.40;;;5.07;;
75071;SDS011;63651;55.728;38.022;2024-01-27T06:10:28;7.65;;;4.72;;
75071;SDS011;63651;55.728;38.022;2024-01-27T06:15:32;7.40;;;5.60;;
75071;SDS011;63651;55.728;38.022;2024-01-27T06:20:34;6.82;;;4.78;;
75071;SDS011;63651;55.728;38.022;2024-01-27T06:25:36;8.30;;;6.05;;
75071;SDS011;63651;55.728;38.022;2024-01-27T06:30:38;9.13;;;5.68;;
75071;SDS011;63651;55.728;38.022;2024-01-27T06:35:41;8.45;;;6.18;;
75071;SDS011;63651;55.728;38.022;2024-01-27T06:40:43;6.97;;;5.03;;
75071;SDS011;63651;55.728;38.022;2024-01-27T06:45:45;6.85;;;5.25;;
75071;SDS011;63651;55.728;38.022;2024-01-27T06:50:47;9.80;;;5.50;;
75071;SDS011;63651;55.728;38.022;2024-01-27T06:55:50;7.45;;;5.20;;
75071;SDS011;63651;55.728;38.022;2024-01-27T07:00:52;8.32;;;5.22;;
75071;SDS011;63651;55.728;38.022;2024-01-27T07:05:55;7.38;;;4.80;;
75071;SDS011;63651;55.728;38.022;2024-01-27T07:11:02;8.48;;;5.78;;
75071;SDS011;63651;55.728;38.022;2024-01-27T07:16:04;9.88;;;6.30;;
75071;SDS011;63651;55.728;38.022;2024-01-27T07:21:06;9.68;;;6.80;;
75071;SDS011;63651;55.728;38.022;2024-01-27T07:26:09;7.43;;;5.38;;
75071;SDS011;63651;55.728;38.022;2024-01-27T07:31:12;7.47;;;5.15;;
75071;SDS011;63651;55.728;38.022;2024-01-27T07:36:14;7.93;;;5.63;;
75071;SDS011;63651;55.728;38.022;2024-01-27T07:41:17;7.47;;;5.30;;
75071;SDS011;63651;55.728;38.022;2024-01-27T07:46:18;9.13;;;5.88;;
75071;SDS011;63651;55.728;38.022;2024-01-27T07:51:22;7.45;;;4.93;;
75071;SDS011;63651;55.728;38.022;2024-01-27T07:56:25;8.27;;;5.45;;
75071;SDS011;63651;55.728;38.022;2024-01-27T08:01:28;10.25;;;5.70;;
75071;SDS011;63651;55.728;38.022;2024-01-27T08:06:30;8.13;;;5.43;;
75071;SDS011;63651;55.728;38.022;2024-01-27T08:11:32;8.68;;;5.43;;
75071;SDS011;63651;55.728;38.022;2024-01-27T08:16:34;10.73;;;6.65;;
75071;SDS011;63651;55.728;38.022;2024-01-27T08:21:36;10.18;;;6.20;;
75071;SDS011;63651;55.728;38.022;2024-01-27T08:26:38;8.35;;;5.93;;
75071;SDS011;63651;55.728;38.022;2024-01-27T08:31:40;7.18;;;5.35;;
75071;SDS011;63651;55.728;38.022;2024-01-27T08:36:42;8.70;;;5.35;;
75071;SDS011;63651;55.728;38.022;2024-01-27T08:41:44;6.15;;;4.78;;
75071;SDS011;63651;55.728;38.022;2024-01-27T08:46:47;6.45;;;5.00;;
75071;SDS011;63651;55.728;38.022;2024-01-27T08:51:50;8.13;;;5.60;;
75071;SDS011;63651;55.728;38.022;2024-01-27T08:56:53;7.28;;;5.03;;
75071;SDS011;63651;55.728;38.022;2024-01-27T09:01:56;6.63;;;5.40;;
75071;SDS011;63651;55.728;38.022;2024-01-27T09:06:58;7.68;;;6.07;;
75071;SDS011;63651;55.728;38.022;2024-01-27T09:12:01;7.20;;;4.80;;
75071;SDS011;63651;55.728;38.022;2024-01-27T09:17:04;6.53;;;5.03;;
75071;SDS011;63651;55.728;38.022;2024-01-27T09:22:06;7.85;;;5.70;;
75071;SDS011;63651;55.728;38.022;2024-01-27T09:27:10;9.48;;;5.28;;
75071;SDS011;63651;55.728;38.022;2024-01-27T09:32:12;8.40;;;5.25;;
75071;SDS011;63651;55.728;38.022;2024-01-27T09:37:15;6.90;;;5.43;;
75071;SDS011;63651;55.728;38.022;2024-01-27T09:42:19;7.18;;;4.90;;
75071;SDS011;63651;55.728;38.022;2024-01-27T09:47:22;6.88;;;4.30;;
75071;SDS011;63651;55.728;38.022;2024-01-27T09:52:25;5.80;;;4.70;;
75071;SDS011;63651;55.728;38.022;2024-01-27T09:57:28;4.88;;;3.95;;
75071;SDS011;63651;55.728;38.022;2024-01-27T10:02:30;6.53;;;4.75;;
75071;SDS011;63651;55.728;38.022;2024-01-27T10:07:34;6.68;;;4.95;;
75071;SDS011;63651;55.728;38.022;2024-01-27T10:12:38;7.15;;;5.43;;
75071;SDS011;63651;55.728;38.022;2024-01-27T10:22:44;7.75;;;5.43;;
75071;SDS011;63651;55.728;38.022;2024-01-27T10:27:46;6.57;;;5.10;;
75071;SDS011;63651;55.728;38.022;2024-01-27T10:32:55;9.05;;;5.68;;
75071;SDS011;63651;55.728;38.022;2024-01-27T10:38:00;7.55;;;5.43;;
75071;SDS011;63651;55.728;38.022;2024-01-27T10:48:06;6.82;;;5.00;;
75071;SDS011;63651;55.728;38.022;2024-01-27T10:53:18;6.45;;;5.60;;
75071;SDS011;63651;55.728;38.022;2024-01-27T10:58:24;7.53;;;5.68;;
75071;SDS011;63651;55.728;38.022;2024-01-27T11:03:26;6.75;;;4.82;;
75071;SDS011;63651;55.728;38.022;2024-01-27T11:08:29;8.05;;;5.38;;
75071;SDS011;63651;55.728;38.022;2024-01-27T11:13:33;8.45;;;5.65;;
75071;SDS011;63651;55.728;38.022;2024-01-27T11:18:36;9.13;;;5.72;;
75071;SDS011;63651;55.728;38.022;2024-01-27T11:23:37;7.07;;;5.05;;
75071;SDS011;63651;55.728;38.022;2024-01-27T11:28:41;8.05;;;5.40;;
75071;SDS011;63651;55.728;38.022;2024-01-27T11:33:43;7.15;;;5.15;;
75071;SDS011;63651;55.728;38.022;2024-01-27T11:38:46;7.28;;;5.07;;
75071;SDS011;63651;55.728;38.022;2024-01-27T11:43:51;7.68;;;5.35;;
75071;SDS011;63651;55.728;38.022;2024-01-27T11:48:53;7.05;;;5.53;;
75071;SDS011;63651;55.728;38.022;2024-01-27T11:53:55;7.03;;;4.97;;
75071;SDS011;63651;55.728;38.022;2024-01-27T11:58:57;8.05;;;4.75;;
75071;SDS011;63651;55.728;38.022;2024-01-27T12:03:59;6.65;;;5.00;;
75071;SDS011;63651;55.728;38.022;2024-01-27T12:09:01;8.23;;;4.95;;
75071;SDS011;63651;55.728;38.022;2024-01-27T12:14:03;6.70;;;5.20;;
75071;SDS011;63651;55.728;38.022;2024-01-27T12:19:08;5.57;;;4.43;;
75071;SDS011;63651;55.728;38.022;2024-01-27T12:24:16;6.65;;;5.25;;
75071;SDS011;63651;55.728;38.022;2024-01-27T12:29:25;6.85;;;4.60;;
75071;SDS011;63651;55.728;38.022;2024-01-27T12:34:27;6.88;;;4.93;;
75071;SDS011;63651;55.728;38.022;2024-01-27T12:39:30;6.68;;;4.72;;
75071;SDS011;63651;55.728;38.022;2024-01-27T12:44:31;6.85;;;5.03;;
75071;SDS011;63651;55.728;38.022;2024-01-27T12:49:35;7.03;;;5.00;;
75071;SDS011;63651;55.728;38.022;2024-01-27T12:54:37;8.82;;;5.40;;
75071;SDS011;63651;55.728;38.022;2024-01-27T12:59:40;7.57;;;5.35;;
75071;SDS011;63651;55.728;38.022;2024-01-27T13:04:43;6.82;;;5.63;;
75071;SDS011;63651;55.728;38.022;2024-01-27T13:09:45;8.13;;;5.15;;
75071;SDS011;63651;55.728;38.022;2024-01-27T13:14:48;6.32;;;5.03;;
75071;SDS011;63651;55.728;38.022;2024-01-27T13:19:50;7.47;;;5.70;;
75071;SDS011;63651;55.728;38.022;2024-01-27T13:24:53;6.18;;;4.63;;
75071;SDS011;63651;55.728;38.022;2024-01-27T13:30:00;6.95;;;5.22;;
75071;SDS011;63651;55.728;38.022;2024-01-27T13:35:03;9.25;;;5.35;;
75071;SDS011;63651;55.728;38.022;2024-01-27T13:40:06;7.70;;;5.30;;
75071;SDS011;63651;55.728;38.022;2024-01-27T13:45:10;7.20;;;4.88;;
75071;SDS011;63651;55.728;38.022;2024-01-27T13:50:14;6.13;;;4.88;;
75071;SDS011;63651;55.728;38.022;2024-01-27T13:55:16;6.85;;;5.70;;
75071;SDS011;63651;55.728;38.022;2024-01-27T14:00:18;7.40;;;4.97;;
75071;SDS011;63651;55.728;38.022;2024-01-27T14:05:23;7.32;;;4.93;;
75071;SDS011;63651;55.728;38.022;2024-01-27T14:10:26;7.70;;;5.85;;
75071;SDS011;63651;55.728;38.022;2024-01-27T14:15:28;7.90;;;5.55;;
75071;SDS011;63651;55.728;38.022;2024-01-27T14:20:30;7.47;;;5.22;;
75071;SDS011;63651;55.728;38.022;2024-01-27T14:25:34;8.43;;;5.65;;
75071;SDS011;63651;55.728;38.022;2024-01-27T14:30:35;6.15;;;5.28;;
75071;SDS011;63651;55.728;38.022;2024-01-27T14:35:38;7.05;;;5.30;;
75071;SDS011;63651;55.728;38.022;2024-01-27T14:40:40;10.25;;;6.18;;
75071;SDS011;63651;55.728;38.022;2024-01-27T14:45:42;9.95;;;6.30;;
75071;SDS011;63651;55.728;38.022;2024-01-27T14:50:45;10.70;;;6.60;;
75071;SDS011;63651;55.728;38.022;2024-01-27T14:55:50;9.40;;;6.38;;
75071;SDS011;63651;55.728;38.022;2024-01-27T15:00:52;8.48;;;5.30;;
75071;SDS011;63651;55.728;38.022;2024-01-27T15:05:54;11.05;;;5.63;;
75071;SDS011;63651;55.728;38.022;2024-01-27T15:10:55;8.23;;;5.53;;
75071;SDS011;63651;55.728;38.022;2024-01-27T15:15:58;6.75;;;4.30;;
75071;SDS011;63651;55.728;38.022;2024-01-27T15:21:00;8.55;;;5.38;;
75071;SDS011;63651;55.728;38.022;2024-01-27T15:26:02;7.32;;;4.30;;
75071;SDS011;63651;55.728;38.022;2024-01-27T15:31:11;5.97;;;3.72;;
75071;SDS011;63651;55.728;38.022;2024-01-27T15:36:14;5.25;;;3.65;;
75071;SDS011;63651;55.728;38.022;2024-01-27T15:41:16;5.90;;;3.45;;
75071;SDS011;63651;55.728;38.022;2024-01-27T15:46:19;4.68;;;3.17;;
75071;SDS011;63651;55.728;38.022;2024-01-27T15:51:21;5.82;;;3.15;;
75071;SDS011;63651;55.728;38.022;2024-01-27T15:56:24;5.15;;;3.40;;
75071;SDS011;63651;55.728;38.022;2024-01-27T16:01:26;4.47;;;3.30;;
75071;SDS011;63651;55.728;38.022;2024-01-27T16:06:29;5.10;;;3.40;;
75071;SDS011;63651;55.728;38.022;2024-01-27T16:11:31;4.57;;;3.30;;
75071;SDS011;63651;55.728;38.022;2024-01-27T16:16:34;3.90;;;2.92;;
75071;SDS011;63651;55.728;38.022;2024-01-27T16:21:35;3.90;;;2.95;;
75071;SDS011;63651;55.728;38.022;2024-01-27T16:26:37;5.60;;;3.38;;
75071;SDS011;63651;55.728;38.022;2024-01-27T16:31:38;4.22;;;3.05;;
75071;SDS011;63651;55.728;38.022;2024-01-27T16:36:40;4.72;;;3.72;;
75071;SDS011;63651;55.728;38.022;2024-01-27T16:41:42;4.07;;;3.00;;
75071;SDS011;63651;55.728;38.022;2024-01-27T16:46:47;5.15;;;3.20;;
75071;SDS011;63651;55.728;38.022;2024-01-27T16:51:50;4.40;;;3.13;;
75071;SDS011;63651;55.728;38.022;2024-01-27T16:56:53;3.65;;;2.55;;
75071;SDS011;63651;55.728;38.022;2024-01-27T17:01:57;3.95;;;2.75;;
75071;SDS011;63651;55.728;38.022;2024-01-27T17:07:00;4.30;;;3.10;;
75071;SDS011;63651;55.728;38.022;2024-01-27T17:12:04;5.25;;;3.30;;
75071;SDS011;63651;55.728;38.022;2024-01-27T17:17:12;4.55;;;3.22;;
75071;SDS011;63651;55.728;38.022;2024-01-27T17:22:14;4.07;;;3.20;;
75071;SDS011;63651;55.728;38.022;2024-01-27T17:27:17;3.65;;;2.95;;
75071;SDS011;63651;55.728;38.022;2024-01-27T17:32:23;4.82;;;3.28;;
75071;SDS011;63651;55.728;38.022;2024-01-27T17:37:25;4.07;;;2.83;;
75071;SDS011;63651;55.728;38.022;2024-01-27T17:42:27;4.43;;;3.42;;
75071;SDS011;63651;55.728;38.022;2024-01-27T17:47:30;4.72;;;3.45;;
75071;SDS011;63651;55.728;38.022;2024-01-27T17:52:32;3.92;;;3.15;;
75071;SDS011;63651;55.728;38.022;2024-01-27T17:57:36;5.10;;;3.20;;
75071;SDS011;63651;55.728;38.022;2024-01-27T18:02:40;4.38;;;3.33;;
75071;SDS011;63651;55.728;38.022;2024-01-27T18:07:44;5.78;;;3.33;;
75071;SDS011;63651;55.728;38.022;2024-01-27T18:12:47;4.93;;;3.55;;
75071;SDS011;63651;55.728;38.022;2024-01-27T18:17:49;3.92;;;2.90;;
75071;SDS011;63651;55.728;38.022;2024-01-27T18:22:55;5.65;;;3.75;;
75071;SDS011;63651;55.728;38.022;2024-01-27T18:27:57;8.38;;;5.75;;
75071;SDS011;63651;55.728;38.022;2024-01-27T18:33:00;8.75;;;5.78;;
75071;SDS011;63651;55.728;38.022;2024-01-27T18:38:04;9.05;;;5.80;;
75071;SDS011;63651;55.728;38.022;2024-01-27T18:43:07;7.72;;;5.72;;
75071;SDS011;63651;55.728;38.022;2024-01-27T18:48:09;8.95;;;6.20;;
75071;SDS011;63651;55.728;38.022;2024-01-27T18:53:12;8.85;;;5.95;;
75071;SDS011;63651;55.728;38.022;2024-01-27T18:58:14;8.45;;;6.10;;
75071;SDS011;63651;55.728;38.022;2024-01-27T19:03:23;8.82;;;5.57;;
75071;SDS011;63651;55.728;38.022;2024-01-27T19:08:25;10.20;;;6.43;;
75071;SDS011;63651;55.728;38.022;2024-01-27T19:13:27;10.23;;;6.25;;
75071;SDS011;63651;55.728;38.022;2024-01-27T19:18:29;8.32;;;5.95;;
75071;SDS011;63651;55.728;38.022;2024-01-27T19:23:32;8.80;;;6.15;;
75071;SDS011;63651;55.728;38.022;2024-01-27T19:28:34;10.15;;;6.22;;
75071;SDS011;63651;55.728;38.022;2024-01-27T19:33:36;7.60;;;5.68;;
75071;SDS011;63651;55.728;38.022;2024-01-27T19:38:37;8.07;;;5.72;;
75071;SDS011;63651;55.728;38.022;2024-01-27T19:43:39;9.23;;;6.05;;
75071;SDS011;63651;55.728;38.022;2024-01-27T19:48:42;9.23;;;5.55;;
75071;SDS011;63651;55.728;38.022;2024-01-27T19:53:44;8.80;;;5.75;;
75071;SDS011;63651;55.728;38.022;2024-01-27T19:58:46;9.60;;;6.13;;
75071;SDS011;63651;55.728;38.022;2024-01-27T20:03:50;7.72;;;5.80;;
75071;SDS011;63651;55.728;38.022;2024-01-27T20:08:52;8.30;;;5.22;;
75071;SDS011;63651;55.728;38.022;2024-01-27T20:13:55;10.23;;;6.38;;
75071;SDS011;63651;55.728;38.022;2024-01-27T20:18:59;9.65;;;6.18;;
75071;SDS011;63651;55.728;38.022;2024-01-27T20:24:01;7.97;;;5.20;;
75071;SDS011;63651;55.728;38.022;2024-01-27T20:29:06;10.82;;;5.80;;
75071;SDS011;63651;55.728;38.022;2024-01-27T20:34:07;10.45;;;5.75;;
75071;SDS011;63651;55.728;38.022;2024-01-27T20:39:08;9.40;;;6.00;;
75071;SDS011;63651;55.728;38.022;2024-01-27T20:44:11;7.97;;;5.25;;
75071;SDS011;63651;55.728;38.022;2024-01-27T20:49:13;7.80;;;5.40;;
75071;SDS011;63651;55.728;38.022;2024-01-27T20:54:15;13.45;;;3.90;;
75071;SDS011;63651;55.728;38.022;2024-01-27T20:59:17;9.48;;;5.43;;
75071;SDS011;63651;55.728;38.022;2024-01-27T21:04:20;8.57;;;4.85;;
75071;SDS011;63651;55.728;38.022;2024-01-27T21:09:25;7.72;;;5.00;;
75071;SDS011;63651;55.728;38.022;2024-01-27T21:14:28;7.45;;;4.75;;
75071;SDS011;63651;55.728;38.022;2024-01-27T21:19:31;8.07;;;5.03;;
75071;SDS011;63651;55.728;38.022;2024-01-27T21:24:34;8.80;;;5.13;;
75071;SDS011;63651;55.728;38.022;2024-01-27T21:29:37;8.25;;;5.40;;
75071;SDS011;63651;55.728;38.022;2024-01-27T21:34:40;9.55;;;5.28;;
75071;SDS011;63651;55.728;38.022;2024-01-27T21:39:43;9.15;;;5.50;;
75071;SDS011;63651;55.728;38.022;2024-01-27T21:44:46;7.90;;;5.30;;
75071;SDS011;63651;55.728;38.022;2024-01-27T21:49:49;8.45;;;4.95;;
75071;SDS011;63651;55.728;38.022;2024-01-27T21:54:52;10.95;;;6.00;;
75071;SDS011;63651;55.728;38.022;2024-01-27T21:59:55;7.45;;;5.40;;
75071;SDS011;63651;55.728;38.022;2024-01-27T22:04:56;9.18;;;5.28;;
75071;SDS011;63651;55.728;38.022;2024-01-27T22:09:58;8.82;;;5.40;;
75071;SDS011;63651;55.728;38.022;2024-01-27T22:15:02;9.50;;;5.28;;
75071;SDS011;63651;55.728;38.022;2024-01-27T22:20:07;7.78;;;4.75;;
75071;SDS011;63651;55.728;38.022;2024-01-27T22:25:10;8.98;;;5.28;;
75071;SDS011;63651;55.728;38.022;2024-01-27T22:30:13;9.93;;;5.47;;
75071;SDS011;63651;55.728;38.022;2024-01-27T22:35:16;7.70;;;4.63;;
75071;SDS011;63651;55.728;38.022;2024-01-27T22:40:18;9.30;;;5.78;;
75071;SDS011;63651;55.728;38.022;2024-01-27T22:45:21;8.15;;;5.20;;
75071;SDS011;63651;55.728;38.022;2024-01-27T22:50:24;8.95;;;5.25;;
75071;SDS011;63651;55.728;38.022;2024-01-27T22:55:27;9.07;;;5.78;;
75071;SDS011;63651;55.728;38.022;2024-01-27T23:00:30;8.52;;;5.00;;
75071;SDS011;63651;55.728;38.022;2024-01-27T23:05:34;9.45;;;5.60;;
75071;SDS011;63651;55.728;38.022;2024-01-27T23:10:36;9.05;;;4.95;;
75071;SDS011;63651;55.728;38.022;2024-01-27T23:15:40;10.10;;;5.28;;
75071;SDS011;63651;55.728;38.022;2024-01-27T23:20:42;11.73;;;5.88;;
75071;SDS011;63651;55.728;38.022;2024-01-27T23:25:45;8.77;;;5.15;;
75071;SDS011;63651;55.728;38.022;2024-01-27T23:30:48;7.75;;;5.03;;
75071;SDS011;63651;55.728;38.022;2024-01-27T23:35:51;7.93;;;5.53;;
75071;SDS011;63651;55.728;38.022;2024-01-27T23:40:54;9.48;;;5.38;;
75071;SDS011;63651;55.728;38.022;2024-01-27T23:45:55;8.85;;;5.60;;
75071;SDS011;63651;55.728;38.022;2024-01-27T23:50:57;9.35;;;5.88;;
75071;SDS011;63651;55.728;38.022;2024-01-27T23:56:00;8.90;;;5.20;;
